sensor_id;sensor_type;location;lat;lon;timestamp;pressure;altitude;pressure_sealevel;temperature;humidity
48517;BME280;34310;51.904;4.256;2023-01-29T00:01:57;103123.25;;;14.91;56.71
48517;BME280;34310;51.904;4.256;2023-01-29T00:04:26;103120.25;;;14.86;56.72
48517;BME280;34310;51.904;4.256;2023-01-29T00:06:53;103114.00;;;14.84;56.80
48517;BME280;34310;51.904;4.256;2023-01-29T00:09:21;103106.84;;;14.82;56.74
48517;BME280;34310;51.904;4.256;2023-01-29T00:11:48;103110.22;;;14.81;56.96
48517;BME280;34310;51.904;4.256;2023-01-29T00:14:15;103102.16;;;14.78;56.91
48517;BME280;34310;51.904;4.256;2023-01-29T00:16:42;103111.63;;;14.77;57.02
48517;BME280;34310;51.904;4.256;2023-01-29T00:19:10;103107.88;;;14.84;56.82
48517;BME280;34310;51.904;4.256;2023-01-29T00:21:37;103100.34;;;14.87;56.71
48517;BME280;34310;51.904;4.256;2023-01-29T00:24:05;103096.34;;;14.91;56.70
48517;BME280;34310;51.904;4.256;2023-01-29T00:26:32;103098.44;;;14.95;56.76
48517;BME280;34310;51.904;4.256;2023-01-29T00:28:59;103096.09;;;14.98;56.67
48517;BME280;34310;51.904;4.256;2023-01-29T00:31:28;103100.00;;;15.03;56.66
48517;BME280;34310;51.904;4.256;2023-01-29T00:33:56;103104.75;;;15.07;56.80
48517;BME280;34310;51.904;4.256;2023-01-29T00:36:24;103103.31;;;15.10;56.83
48517;BME280;34310;51.904;4.256;2023-01-29T00:38:57;103091.34;;;15.12;56.72
48517;BME280;34310;51.904;4.256;2023-01-29T00:41:29;103082.78;;;15.13;56.48
48517;BME280;34310;51.904;4.256;2023-01-29T00:44:16;103089.94;;;15.16;56.51
48517;BME280;34310;51.904;4.256;2023-01-29T00:47:03;103083.94;;;15.17;56.68
48517;BME280;34310;51.904;4.256;2023-01-29T00:49:31;103085.78;;;15.18;56.65
48517;BME280;34310;51.904;4.256;2023-01-29T00:51:58;103075.50;;;15.19;56.59
48517;BME280;34310;51.904;4.256;2023-01-29T00:54:44;103079.00;;;15.20;56.63
48517;BME280;34310;51.904;4.256;2023-01-29T00:57:11;103081.47;;;15.18;56.64
48517;BME280;34310;51.904;4.256;2023-01-29T00:59:38;103077.19;;;15.19;56.61
48517;BME280;34310;51.904;4.256;2023-01-29T01:02:05;103072.88;;;15.19;56.73
48517;BME280;34310;51.904;4.256;2023-01-29T01:04:51;103074.59;;;15.19;56.83
48517;BME280;34310;51.904;4.256;2023-01-29T01:07:19;103071.06;;;15.18;56.75
48517;BME280;34310;51.904;4.256;2023-01-29T01:09:46;103071.84;;;15.17;56.87
48517;BME280;34310;51.904;4.256;2023-01-29T01:12:32;103063.13;;;15.17;56.79
48517;BME280;34310;51.904;4.256;2023-01-29T01:15:00;103061.31;;;15.16;56.75
48517;BME280;34310;51.904;4.256;2023-01-29T01:17:27;103065.72;;;15.17;56.68
48517;BME280;34310;51.904;4.256;2023-01-29T01:19:54;103062.09;;;15.15;56.63
48517;BME280;34310;51.904;4.256;2023-01-29T01:22:22;103064.56;;;15.13;56.70
48517;BME280;34310;51.904;4.256;2023-01-29T01:24:49;103064.56;;;15.13;56.65
48517;BME280;34310;51.904;4.256;2023-01-29T01:27:16;103068.72;;;15.11;56.66
48517;BME280;34310;51.904;4.256;2023-01-29T01:29:46;103070.41;;;15.11;56.56
48517;BME280;34310;51.904;4.256;2023-01-29T01:32:13;103075.47;;;15.09;56.66
48517;BME280;34310;51.904;4.256;2023-01-29T01:34:42;103070.91;;;15.07;56.73
48517;BME280;34310;51.904;4.256;2023-01-29T01:37:11;103073.38;;;15.05;56.60
48517;BME280;34310;51.904;4.256;2023-01-29T01:39:38;103075.84;;;15.04;56.69
48517;BME280;34310;51.904;4.256;2023-01-29T01:42:11;103083.66;;;15.04;56.62
48517;BME280;34310;51.904;4.256;2023-01-29T01:45:33;103077.38;;;15.02;56.73
48517;BME280;34310;51.904;4.256;2023-01-29T01:48:11;103074.50;;;14.99;56.85
48517;BME280;34310;51.904;4.256;2023-01-29T01:50:51;103070.84;;;14.97;56.65
48517;BME280;34310;51.904;4.256;2023-01-29T01:53:26;103075.16;;;14.96;56.84
48517;BME280;34310;51.904;4.256;2023-01-29T01:56:02;103082.81;;;14.95;56.63
48517;BME280;34310;51.904;4.256;2023-01-29T01:58:33;103080.88;;;14.92;56.91
48517;BME280;34310;51.904;4.256;2023-01-29T02:01:07;103084.25;;;14.91;56.79
48517;BME280;34310;51.904;4.256;2023-01-29T02:03:43;103078.00;;;14.89;56.75
48517;BME280;34310;51.904;4.256;2023-01-29T02:06:30;103068.50;;;14.90;56.77
48517;BME280;34310;51.904;4.256;2023-01-29T02:09:22;103066.41;;;14.85;56.84
48517;BME280;34310;51.904;4.256;2023-01-29T02:12:13;103075.00;;;14.84;56.97
48517;BME280;34310;51.904;4.256;2023-01-29T02:14:42;103068.59;;;14.81;56.92
48517;BME280;34310;51.904;4.256;2023-01-29T02:17:17;103058.06;;;14.79;57.00
48517;BME280;34310;51.904;4.256;2023-01-29T02:39:22;103053.31;;;14.65;57.27
48517;BME280;34310;51.904;4.256;2023-01-29T02:42:16;103052.66;;;14.68;57.37
48517;BME280;34310;51.904;4.256;2023-01-29T02:44:51;103068.41;;;14.69;57.51
48517;BME280;34310;51.904;4.256;2023-01-29T02:47:29;103059.97;;;14.72;57.44
48517;BME280;34310;51.904;4.256;2023-01-29T02:53:31;103057.28;;;14.80;57.42
48517;BME280;34310;51.904;4.256;2023-01-29T02:56:21;103053.41;;;14.85;57.48
48517;BME280;34310;51.904;4.256;2023-01-29T02:59:00;103059.00;;;14.90;57.38
48517;BME280;34310;51.904;4.256;2023-01-29T03:01:34;103054.06;;;14.93;57.32
48517;BME280;34310;51.904;4.256;2023-01-29T03:04:07;103056.03;;;14.96;57.35
48517;BME280;34310;51.904;4.256;2023-01-29T03:06:45;103055.38;;;14.98;57.34
48517;BME280;34310;51.904;4.256;2023-01-29T03:09:34;103048.63;;;15.00;57.10
48517;BME280;34310;51.904;4.256;2023-01-29T03:12:14;103053.97;;;15.02;57.06
48517;BME280;34310;51.904;4.256;2023-01-29T03:14:56;103054.09;;;15.03;57.16
48517;BME280;34310;51.904;4.256;2023-01-29T03:17:54;103052.28;;;15.02;57.13
48517;BME280;34310;51.904;4.256;2023-01-29T03:20:28;103051.50;;;15.03;57.04
48517;BME280;34310;51.904;4.256;2023-01-29T03:23:03;103052.44;;;15.04;56.96
48517;BME280;34310;51.904;4.256;2023-01-29T03:25:33;103048.91;;;15.03;57.07
48517;BME280;34310;51.904;4.256;2023-01-29T03:28:21;103038.50;;;15.03;57.08
48517;BME280;34310;51.904;4.256;2023-01-29T03:31:11;103035.13;;;15.04;56.97
48517;BME280;34310;51.904;4.256;2023-01-29T03:34:00;103031.63;;;15.04;57.07
48517;BME280;34310;51.904;4.256;2023-01-29T03:37:09;103038.50;;;15.03;57.00
48517;BME280;34310;51.904;4.256;2023-01-29T03:39:28;103038.34;;;15.02;56.99
48517;BME280;34310;51.904;4.256;2023-01-29T03:42:19;103032.88;;;14.99;57.19
48517;BME280;34310;51.904;4.256;2023-01-29T03:44:52;103040.69;;;14.99;57.21
48517;BME280;34310;51.904;4.256;2023-01-29T03:52:50;103035.22;;;14.96;57.21
48517;BME280;34310;51.904;4.256;2023-01-29T04:01:17;103012.31;;;14.92;57.02
48517;BME280;34310;51.904;4.256;2023-01-29T04:04:06;103013.88;;;14.90;57.18
48517;BME280;34310;51.904;4.256;2023-01-29T04:06:37;103012.97;;;14.89;57.16
48517;BME280;34310;51.904;4.256;2023-01-29T04:09:15;103009.31;;;14.87;57.10
48517;BME280;34310;51.904;4.256;2023-01-29T04:11:48;103008.28;;;14.85;57.33
48517;BME280;34310;51.904;4.256;2023-01-29T04:14:17;103001.25;;;14.84;57.34
48517;BME280;34310;51.904;4.256;2023-01-29T04:16:49;103005.41;;;14.82;57.23
48517;BME280;34310;51.904;4.256;2023-01-29T04:19:17;103004.50;;;14.81;57.33
48517;BME280;34310;51.904;4.256;2023-01-29T04:21:47;103005.16;;;14.79;57.33
48517;BME280;34310;51.904;4.256;2023-01-29T04:24:16;103005.16;;;14.79;57.26
48517;BME280;34310;51.904;4.256;2023-01-29T04:43:25;102981.56;;;14.67;57.25
48517;BME280;34310;51.904;4.256;2023-01-29T04:46:07;102985.72;;;14.65;57.37
48517;BME280;34310;51.904;4.256;2023-01-29T04:54:19;102963.47;;;14.59;57.45
48517;BME280;34310;51.904;4.256;2023-01-29T04:56:58;102962.56;;;14.58;57.32
48517;BME280;34310;51.904;4.256;2023-01-29T04:59:38;102955.81;;;14.60;57.61
48517;BME280;34310;51.904;4.256;2023-01-29T05:02:08;102962.81;;;14.61;57.45
48517;BME280;34310;51.904;4.256;2023-01-29T05:04:38;102964.78;;;14.64;57.61
48517;BME280;34310;51.904;4.256;2023-01-29T05:07:10;102971.16;;;14.67;57.55
48517;BME280;34310;51.904;4.256;2023-01-29T05:09:40;102968.94;;;14.72;57.54
48517;BME280;34310;51.904;4.256;2023-01-29T05:12:10;102966.00;;;14.77;57.52
48517;BME280;34310;51.904;4.256;2023-01-29T05:14:40;102953.28;;;14.80;57.41
48517;BME280;34310;51.904;4.256;2023-01-29T05:17:14;102950.16;;;14.84;57.48
48517;BME280;34310;51.904;4.256;2023-01-29T05:19:42;102945.22;;;14.87;57.46
48517;BME280;34310;51.904;4.256;2023-01-29T05:22:11;102942.75;;;14.89;57.29
48517;BME280;34310;51.904;4.256;2023-01-29T05:24:41;102937.69;;;14.91;57.33
48517;BME280;34310;51.904;4.256;2023-01-29T05:27:19;102935.22;;;14.92;57.24
48517;BME280;34310;51.904;4.256;2023-01-29T05:30:06;102935.34;;;14.94;57.27
48517;BME280;34310;51.904;4.256;2023-01-29T05:32:34;102926.75;;;14.95;57.31
48517;BME280;34310;51.904;4.256;2023-01-29T05:35:01;102931.03;;;14.94;57.30
48517;BME280;34310;51.904;4.256;2023-01-29T05:37:29;102928.56;;;14.96;57.28
48517;BME280;34310;51.904;4.256;2023-01-29T05:39:56;102924.16;;;14.95;57.13
48517;BME280;34310;51.904;4.256;2023-01-29T05:42:24;102918.94;;;14.95;57.31
48517;BME280;34310;51.904;4.256;2023-01-29T05:44:51;102918.16;;;14.96;57.17
48517;BME280;34310;51.904;4.256;2023-01-29T05:47:19;102925.97;;;14.96;57.20
48517;BME280;34310;51.904;4.256;2023-01-29T05:49:46;102921.41;;;14.93;57.28
48517;BME280;34310;51.904;4.256;2023-01-29T05:52:14;102917.13;;;14.94;57.39
48517;BME280;34310;51.904;4.256;2023-01-29T05:54:41;102921.41;;;14.93;57.32
48517;BME280;34310;51.904;4.256;2023-01-29T05:57:08;102920.50;;;14.93;57.40
48517;BME280;34310;51.904;4.256;2023-01-29T05:59:35;102919.47;;;14.91;57.44
48517;BME280;34310;51.904;4.256;2023-01-29T06:02:03;102923.91;;;14.92;57.39
48517;BME280;34310;51.904;4.256;2023-01-29T06:04:30;102932.47;;;14.91;57.24
48517;BME280;34310;51.904;4.256;2023-01-29T06:06:57;102927.16;;;14.89;57.17
48517;BME280;34310;51.904;4.256;2023-01-29T06:09:25;102925.31;;;14.88;57.21
48517;BME280;34310;51.904;4.256;2023-01-29T06:11:52;102921.03;;;14.88;57.24
48517;BME280;34310;51.904;4.256;2023-01-29T06:14:19;102926.88;;;14.86;57.61
48517;BME280;34310;51.904;4.256;2023-01-29T06:16:47;102931.16;;;14.85;57.35
48517;BME280;34310;51.904;4.256;2023-01-29T06:19:14;102933.63;;;14.84;57.34
48517;BME280;34310;51.904;4.256;2023-01-29T06:21:41;102926.63;;;14.83;57.30
48517;BME280;34310;51.904;4.256;2023-01-29T06:24:09;102926.47;;;14.81;57.41
48517;BME280;34310;51.904;4.256;2023-01-29T06:26:36;102915.97;;;14.80;57.37
48517;BME280;34310;51.904;4.256;2023-01-29T06:29:03;102909.59;;;14.76;57.46
48517;BME280;34310;51.904;4.256;2023-01-29T06:31:31;102910.34;;;14.75;57.45
48517;BME280;34310;51.904;4.256;2023-01-29T06:34:06;102912.19;;;14.76;57.29
48517;BME280;34310;51.904;4.256;2023-01-29T06:36:33;102904.09;;;14.73;57.43
48517;BME280;34310;51.904;4.256;2023-01-29T06:39:00;102904.09;;;14.73;57.48
48517;BME280;34310;51.904;4.256;2023-01-29T06:41:28;102903.81;;;14.70;57.57
48517;BME280;34310;51.904;4.256;2023-01-29T06:43:55;102902.00;;;14.69;57.58
48517;BME280;34310;51.904;4.256;2023-01-29T06:46:22;102907.19;;;14.69;57.38
48517;BME280;34310;51.904;4.256;2023-01-29T06:48:50;102904.47;;;14.68;57.35
48517;BME280;34310;51.904;4.256;2023-01-29T06:51:17;102905.13;;;14.65;57.51
48517;BME280;34310;51.904;4.256;2023-01-29T06:53:45;102900.69;;;14.64;57.49
48517;BME280;34310;51.904;4.256;2023-01-29T06:56:13;102903.94;;;14.62;57.50
48517;BME280;34310;51.904;4.256;2023-01-29T06:58:40;102896.00;;;14.60;57.46
48517;BME280;34310;51.904;4.256;2023-01-29T07:01:11;102894.19;;;14.59;57.38
48517;BME280;34310;51.904;4.256;2023-01-29T07:03:58;102890.53;;;14.57;57.46
48517;BME280;34310;51.904;4.256;2023-01-29T07:06:29;102883.53;;;14.56;57.65
48517;BME280;34310;51.904;4.256;2023-01-29T07:08:56;102879.25;;;14.56;57.73
48517;BME280;34310;51.904;4.256;2023-01-29T07:11:24;102889.78;;;14.58;57.59
48517;BME280;34310;51.904;4.256;2023-01-29T07:13:51;102886.38;;;14.59;57.70
48517;BME280;34310;51.904;4.256;2023-01-29T07:16:18;102891.97;;;14.64;57.71
48517;BME280;34310;51.904;4.256;2023-01-29T07:18:46;102892.38;;;14.68;57.68
48517;BME280;34310;51.904;4.256;2023-01-29T07:21:13;102897.19;;;14.74;57.46
48517;BME280;34310;51.904;4.256;2023-01-29T07:23:40;102903.59;;;14.77;57.56
48517;BME280;34310;51.904;4.256;2023-01-29T07:26:09;102901.25;;;14.80;57.53
48517;BME280;34310;51.904;4.256;2023-01-29T07:28:37;102904.13;;;14.83;57.57
48517;BME280;34310;51.904;4.256;2023-01-29T07:31:05;102903.47;;;14.86;57.27
48517;BME280;34310;51.904;4.256;2023-01-29T07:33:33;102895.81;;;14.87;57.44
48517;BME280;34310;51.904;4.256;2023-01-29T07:36:01;102891.50;;;14.88;57.34
48517;BME280;34310;51.904;4.256;2023-01-29T07:38:28;102892.56;;;14.90;57.46
48517;BME280;34310;51.904;4.256;2023-01-29T07:40:56;102890.84;;;14.91;57.43
48517;BME280;34310;51.904;4.256;2023-01-29T07:43:23;102887.34;;;14.90;57.25
48517;BME280;34310;51.904;4.256;2023-01-29T07:45:51;102897.09;;;14.93;57.26
48517;BME280;34310;51.904;4.256;2023-01-29T07:48:18;102891.00;;;14.92;57.45
48517;BME280;34310;51.904;4.256;2023-01-29T07:50:54;102887.47;;;14.92;57.24
48517;BME280;34310;51.904;4.256;2023-01-29T07:53:21;102898.78;;;14.92;57.30
48517;BME280;34310;51.904;4.256;2023-01-29T07:55:49;102891.63;;;14.90;57.39
48517;BME280;34310;51.904;4.256;2023-01-29T07:58:16;102891.78;;;14.91;57.31
48517;BME280;34310;51.904;4.256;2023-01-29T08:00:44;102891.78;;;14.91;57.30
48517;BME280;34310;51.904;4.256;2023-01-29T08:03:17;102893.47;;;14.91;57.32
48517;BME280;34310;51.904;4.256;2023-01-29T08:05:44;102888.38;;;14.92;57.32
48517;BME280;34310;51.904;4.256;2023-01-29T08:08:12;102891.00;;;14.92;57.31
48517;BME280;34310;51.904;4.256;2023-01-29T08:10:40;102885.91;;;14.94;57.21
48517;BME280;34310;51.904;4.256;2023-01-29T08:13:08;102883.31;;;14.94;57.17
48517;BME280;34310;51.904;4.256;2023-01-29T08:15:35;102883.44;;;14.95;57.15
48517;BME280;34310;51.904;4.256;2023-01-29T08:18:05;102879.03;;;14.94;57.12
48517;BME280;34310;51.904;4.256;2023-01-29T08:20:33;102890.34;;;14.95;57.09
48517;BME280;34310;51.904;4.256;2023-01-29T08:23:02;102880.72;;;14.94;57.22
48517;BME280;34310;51.904;4.256;2023-01-29T08:25:30;102885.91;;;14.94;57.12
48517;BME280;34310;51.904;4.256;2023-01-29T08:27:59;102873.56;;;14.91;57.08
48517;BME280;34310;51.904;4.256;2023-01-29T08:30:28;102875.38;;;14.92;57.07
48517;BME280;34310;51.904;4.256;2023-01-29T08:32:56;102878.75;;;14.91;56.99
48517;BME280;34310;51.904;4.256;2023-01-29T08:35:24;102863.94;;;14.90;57.14
48517;BME280;34310;51.904;4.256;2023-01-29T08:37:56;102869.94;;;14.89;57.12
48517;BME280;34310;51.904;4.256;2023-01-29T08:40:28;102866.41;;;14.88;57.01
48517;BME280;34310;51.904;4.256;2023-01-29T08:43:05;102860.16;;;14.86;57.02
48517;BME280;34310;51.904;4.256;2023-01-29T08:45:39;102858.34;;;14.85;57.06
48517;BME280;34310;51.904;4.256;2023-01-29T08:48:07;102855.22;;;14.79;57.09
48517;BME280;34310;51.904;4.256;2023-01-29T08:50:35;102854.44;;;14.80;57.16
48517;BME280;34310;51.904;4.256;2023-01-29T08:53:05;102851.84;;;14.80;57.09
48517;BME280;34310;51.904;4.256;2023-01-29T08:55:39;102852.63;;;14.79;57.09
48517;BME280;34310;51.904;4.256;2023-01-29T08:58:09;102847.78;;;14.74;57.14
48517;BME280;34310;51.904;4.256;2023-01-29T09:00:37;102848.69;;;14.74;57.21
48517;BME280;34310;51.904;4.256;2023-01-29T09:03:04;102847.78;;;14.74;57.22
48517;BME280;34310;51.904;4.256;2023-01-29T09:05:34;102844.28;;;14.73;57.14
48517;BME280;34310;51.904;4.256;2023-01-29T09:08:03;102844.81;;;14.69;57.14
48517;BME280;34310;51.904;4.256;2023-01-29T09:10:30;102845.72;;;14.70;57.22
48517;BME280;34310;51.904;4.256;2023-01-29T09:12:58;102841.94;;;14.66;57.31
48517;BME280;34310;51.904;4.256;2023-01-29T09:15:25;102844.41;;;14.65;57.39
48517;BME280;34310;51.904;4.256;2023-01-29T09:21:33;102846.63;;;14.60;57.47
48517;BME280;34310;51.904;4.256;2023-01-29T09:24:01;102842.97;;;14.58;57.31
48517;BME280;34310;51.904;4.256;2023-01-29T09:26:28;102835.97;;;14.57;57.40
48517;BME280;34310;51.904;4.256;2023-01-29T09:28:55;102840.00;;;14.53;57.52
48517;BME280;34310;51.904;4.256;2023-01-29T09:31:23;102843.50;;;14.54;57.60
48517;BME280;34310;51.904;4.256;2023-01-29T09:33:50;102848.44;;;14.51;57.63
48517;BME280;34310;51.904;4.256;2023-01-29T09:36:17;102837.78;;;14.48;57.67
48517;BME280;34310;51.904;4.256;2023-01-29T09:38:45;102838.69;;;14.48;57.74
48517;BME280;34310;51.904;4.256;2023-01-29T09:41:45;102839.72;;;14.50;57.55
48517;BME280;34310;51.904;4.256;2023-01-29T09:46:52;102846.22;;;14.55;57.63
48517;BME280;34310;51.904;4.256;2023-01-29T09:49:36;102841.41;;;14.60;57.75
48517;BME280;34310;51.904;4.256;2023-01-29T09:52:27;102849.75;;;14.66;57.73
48517;BME280;34310;51.904;4.256;2023-01-29T09:57:55;102845.09;;;14.82;57.68
48517;BME280;34310;51.904;4.256;2023-01-29T10:11:36;102815.53;;;15.02;57.47
48517;BME280;34310;51.904;4.256;2023-01-29T10:14:17;102811.41;;;15.04;57.30
48517;BME280;34310;51.904;4.256;2023-01-29T10:19:39;102804.78;;;15.08;57.27
48517;BME280;34310;51.904;4.256;2023-01-29T10:25:01;102799.03;;;15.12;57.20
48517;BME280;34310;51.904;4.256;2023-01-29T10:27:31;102796.44;;;15.12;57.32
48517;BME280;34310;51.904;4.256;2023-01-29T10:29:59;102789.53;;;15.12;57.21
48517;BME280;34310;51.904;4.256;2023-01-29T10:32:28;102789.66;;;15.14;57.15
48517;BME280;34310;51.904;4.256;2023-01-29T10:34:58;102788.88;;;15.15;56.96
48517;BME280;34310;51.904;4.256;2023-01-29T10:37:39;102791.63;;;15.16;57.04
48517;BME280;34310;51.904;4.256;2023-01-29T10:40:52;102787.44;;;15.18;56.93
48517;BME280;34310;51.904;4.256;2023-01-29T10:46:18;102791.09;;;15.21;56.83
48517;BME280;34310;51.904;4.256;2023-01-29T11:01:15;102776.25;;;15.19;56.80
48517;BME280;34310;51.904;4.256;2023-01-29T11:03:43;102766.63;;;15.18;56.64
48517;BME280;34310;51.904;4.256;2023-01-29T11:06:18;102755.19;;;15.16;56.61
48517;BME280;34310;51.904;4.256;2023-01-29T11:08:55;102762.22;;;15.17;56.75
48517;BME280;34310;51.904;4.256;2023-01-29T11:11:30;102762.88;;;15.15;56.54
48517;BME280;34310;51.904;4.256;2023-01-29T11:14:00;102754.16;;;15.14;56.73
48517;BME280;34310;51.904;4.256;2023-01-29T11:16:40;102755.06;;;15.15;56.65
48517;BME280;34310;51.904;4.256;2023-01-29T11:19:08;102754.81;;;15.12;56.47
48517;BME280;34310;51.904;4.256;2023-01-29T11:24:18;102745.72;;;15.07;56.62
48517;BME280;34310;51.904;4.256;2023-01-29T11:26:45;102747.00;;;15.02;56.67
48517;BME280;34310;51.904;4.256;2023-01-29T11:32:02;102743.50;;;15.01;56.63
48517;BME280;34310;51.904;4.256;2023-01-29T11:34:30;102735.56;;;15.00;56.57
48517;BME280;34310;51.904;4.256;2023-01-29T11:39:25;102728.03;;;14.93;56.75
48517;BME280;34310;51.904;4.256;2023-01-29T11:41:57;102723.63;;;14.92;56.62
48517;BME280;34310;51.904;4.256;2023-01-29T11:49:48;102713.63;;;14.86;56.74
48517;BME280;34310;51.904;4.256;2023-01-29T11:52:17;102704.91;;;14.85;56.80
48517;BME280;34310;51.904;4.256;2023-01-29T11:54:56;102708.06;;;14.81;56.85
48517;BME280;34310;51.904;4.256;2023-01-29T11:57:26;102708.84;;;14.80;56.84
48517;BME280;34310;51.904;4.256;2023-01-29T11:59:55;102699.22;;;14.79;56.76
48517;BME280;34310;51.904;4.256;2023-01-29T12:02:25;102698.97;;;14.76;56.95
48517;BME280;34310;51.904;4.256;2023-01-29T12:04:57;102686.09;;;14.78;56.75
48517;BME280;34310;51.904;4.256;2023-01-29T12:07:26;102681.78;;;14.78;56.93
48517;BME280;34310;51.904;4.256;2023-01-29T12:09:54;102679.84;;;14.76;56.82
48517;BME280;34310;51.904;4.256;2023-01-29T12:15:03;102671.50;;;14.70;56.97
48517;BME280;34310;51.904;4.256;2023-01-29T12:17:32;102668.00;;;14.69;57.10
48517;BME280;34310;51.904;4.256;2023-01-29T12:20:09;102654.88;;;14.68;56.95
48517;BME280;34310;51.904;4.256;2023-01-29T12:30:06;102629.53;;;14.65;57.08
48517;BME280;34310;51.904;4.256;2023-01-29T12:32:55;102626.16;;;14.66;57.01
48517;BME280;34310;51.904;4.256;2023-01-29T12:35:27;102633.41;;;14.70;57.09
48517;BME280;34310;51.904;4.256;2023-01-29T12:37:58;102634.59;;;14.74;57.04
48517;BME280;34310;51.904;4.256;2023-01-29T12:40:29;102630.44;;;14.76;57.13
48517;BME280;34310;51.904;4.256;2023-01-29T12:43:00;102626.53;;;14.81;57.15
48517;BME280;34310;51.904;4.256;2023-01-29T12:45:30;102625.34;;;14.87;57.02
48517;BME280;34310;51.904;4.256;2023-01-29T12:48:04;102620.63;;;14.94;57.20
48517;BME280;34310;51.904;4.256;2023-01-29T12:50:32;102609.91;;;15.01;57.12
48517;BME280;34310;51.904;4.256;2023-01-29T12:53:02;102599.00;;;15.05;57.12
48517;BME280;34310;51.904;4.256;2023-01-29T12:55:37;102599.38;;;15.09;56.79
48517;BME280;34310;51.904;4.256;2023-01-29T12:58:11;102597.94;;;15.13;57.02
48517;BME280;34310;51.904;4.256;2023-01-29T13:00:42;102582.69;;;15.17;56.81
48517;BME280;34310;51.904;4.256;2023-01-29T13:08:20;102556.22;;;15.23;56.81
48517;BME280;34310;51.904;4.256;2023-01-29T13:10:50;102540.75;;;15.25;56.69
48517;BME280;34310;51.904;4.256;2023-01-29T13:16:22;102519.25;;;15.27;56.68
48517;BME280;34310;51.904;4.256;2023-01-29T13:21:23;102515.06;;;15.29;56.67
48517;BME280;34310;51.904;4.256;2023-01-29T13:23:52;102515.19;;;15.31;56.57
48517;BME280;34310;51.904;4.256;2023-01-29T13:26:20;102513.50;;;15.31;56.69
48517;BME280;34310;51.904;4.256;2023-01-29T13:28:48;102508.28;;;15.31;56.59
48517;BME280;34310;51.904;4.256;2023-01-29T13:34:19;102502.19;;;15.31;56.63
48517;BME280;34310;51.904;4.256;2023-01-29T13:36:51;102492.84;;;15.33;56.54
48517;BME280;34310;51.904;4.256;2023-01-29T13:41:50;102482.44;;;15.33;56.52
48517;BME280;34310;51.904;4.256;2023-01-29T13:46:52;102476.44;;;15.34;56.51
48517;BME280;34310;51.904;4.256;2023-01-29T13:49:42;102476.28;;;15.32;56.48
48517;BME280;34310;51.904;4.256;2023-01-29T13:54:58;102471.75;;;15.30;56.47
48517;BME280;34310;51.904;4.256;2023-01-29T13:57:34;102468.22;;;15.29;56.70
48517;BME280;34310;51.904;4.256;2023-01-29T14:00:02;102465.63;;;15.29;56.48
48517;BME280;34310;51.904;4.256;2023-01-29T14:02:31;102467.22;;;15.27;56.53
48517;BME280;34310;51.904;4.256;2023-01-29T14:10:16;102454.75;;;15.23;56.34
48517;BME280;34310;51.904;4.256;2023-01-29T14:12:44;102455.44;;;15.21;56.32
48517;BME280;34310;51.904;4.256;2023-01-29T14:15:19;102456.78;;;15.15;56.23
48517;BME280;34310;51.904;4.256;2023-01-29T14:17:54;102444.66;;;15.16;56.32
48517;BME280;34310;51.904;4.256;2023-01-29T14:20:23;102450.44;;;15.12;56.19
48517;BME280;34310;51.904;4.256;2023-01-29T14:23:17;102456.31;;;15.09;56.36
48517;BME280;34310;51.904;4.256;2023-01-29T14:25:47;102450.88;;;15.06;56.38
48517;BME280;34310;51.904;4.256;2023-01-29T14:28:19;102449.84;;;15.04;56.39
48517;BME280;34310;51.904;4.256;2023-01-29T14:30:47;102441.75;;;15.01;56.37
48517;BME280;34310;51.904;4.256;2023-01-29T14:35:49;102438.81;;;14.97;56.55
48517;BME280;34310;51.904;4.256;2023-01-29T14:38:16;102429.19;;;14.96;56.41
48517;BME280;34310;51.904;4.256;2023-01-29T14:40:44;102428.84;;;14.91;56.57
48517;BME280;34310;51.904;4.256;2023-01-29T14:43:16;102428.72;;;14.90;56.62
48517;BME280;34310;51.904;4.256;2023-01-29T14:45:46;102425.22;;;14.89;56.55
48517;BME280;34310;51.904;4.256;2023-01-29T14:50:45;102422.91;;;14.82;56.78
48517;BME280;34310;51.904;4.256;2023-01-29T14:56:08;102415.00;;;14.80;56.79
48517;BME280;34310;51.904;4.256;2023-01-29T14:58:40;102418.16;;;14.76;56.84
48517;BME280;34310;51.904;4.256;2023-01-29T15:01:17;102415.44;;;14.75;56.82
48517;BME280;34310;51.904;4.256;2023-01-29T15:03:47;102411.13;;;14.75;56.90
48517;BME280;34310;51.904;4.256;2023-01-29T15:06:21;102409.84;;;14.70;56.93
48517;BME280;34310;51.904;4.256;2023-01-29T15:08:53;102415.03;;;14.70;56.96
48517;BME280;34310;51.904;4.256;2023-01-29T15:11:33;102407.00;;;14.67;57.06
48517;BME280;34310;51.904;4.256;2023-01-29T15:14:16;102409.47;;;14.66;56.99
48517;BME280;34310;51.904;4.256;2023-01-29T15:19:19;102405.38;;;14.57;57.30
48517;BME280;34310;51.904;4.256;2023-01-29T15:22:05;102403.38;;;14.65;57.02
48517;BME280;34310;51.904;4.256;2023-01-29T15:24:34;102394.25;;;14.70;57.05
48517;BME280;34310;51.904;4.256;2023-01-29T15:27:02;102390.84;;;14.71;57.17
48517;BME280;34310;51.904;4.256;2023-01-29T15:29:29;102398.88;;;14.74;57.30
48517;BME280;34310;51.904;4.256;2023-01-29T15:31:57;102389.91;;;14.81;57.23
48517;BME280;34310;51.904;4.256;2023-01-29T15:34:25;102388.56;;;14.86;57.04
48517;BME280;34310;51.904;4.256;2023-01-29T15:36:52;102384.75;;;14.93;57.20
48517;BME280;34310;51.904;4.256;2023-01-29T15:39:20;102383.63;;;15.01;57.30
48517;BME280;34310;51.904;4.256;2023-01-29T15:41:49;102385.72;;;15.05;56.98
48517;BME280;34310;51.904;4.256;2023-01-29T15:44:19;102384.13;;;15.07;56.97
48517;BME280;34310;51.904;4.256;2023-01-29T15:46:54;102386.19;;;15.11;56.91
48517;BME280;34310;51.904;4.256;2023-01-29T15:49:32;102382.13;;;15.14;57.00
48517;BME280;34310;51.904;4.256;2023-01-29T15:52:07;102379.75;;;15.17;56.96
48517;BME280;34310;51.904;4.256;2023-01-29T15:54:40;102383.25;;;15.18;56.82